Plaza, North Carolina
Current Conditions -  °F | °C
As of 9:54 AM on Thursday 30 Oct 2014 (Local Time) from KGSO Reporting Station
Clear Clear  
Wind Chill: 57°   Ceiling: Unl
Heat Index: 57°   Visibility: 10mi
Dew Point: 42°   Wind: 5mph
Humidity: 57%   Direction: 20°NNE
Pressure: 30.08"   Gusts: NA
Location:  36.1026°N, 79.8146°W
Report Text: KGSO 301354Z 02004KT 10SM CLR 14/06 A3008 RMK AO2 SLP181 T01390056
Loading
Personal Weather Stations






























Interactive Weather Map
Tropical Storm Tracking
New forecast layout! Learn more

10-Day Weather Forecast

Advertisements
Track Severe Weather on mobile